Time;durP1;ratioP1;P1;durP2;ratioP2;P2;SDS_P1;SDS_P2;PMS_P1;PMS_P2;Temp;Humidity;BMP_temperature;BMP_pressure;BME280_temperature;BME280_humidity;BME280_pressure;Samples;Min_cycle;Max_cycle;Signal;HPM_P1;HPM_P2
2020/12/07 05:18:20;;;;;;;4.60;2.47;;;5.90;99.90;;;;;;5803633;23;20111;-68
2020/12/07 05:20:47;;;;;;;5.82;2.60;;;5.80;99.90;;;;;;4895843;29;20480;-71
2020/12/07 05:23:17;;;;;;;3.83;2.20;;;5.80;99.90;;;;;;4899340;29;20036;-69
2020/12/07 05:25:48;;;;;;;4.32;2.40;;;5.70;99.90;;;;;;4899397;29;20080;-69
2020/12/07 05:28:28;;;;;;;5.97;2.17;;;5.70;99.90;;;;;;4893146;29;20508;-69
2020/12/07 05:30:54;;;;;;;3.92;1.95;;;5.80;99.90;;;;;;4887858;29;20463;-69
2020/12/07 05:33:19;;;;;;;2.70;1.88;;;5.80;99.90;;;;;;4899384;29;20069;-74
2020/12/07 05:35:51;;;;;;;3.38;2.25;;;5.90;99.90;;;;;;4899370;29;20135;-71
2020/12/07 05:38:18;;;;;;;3.30;2.08;;;5.80;99.90;;;;;;4893197;29;20495;-71
2020/12/07 05:40:44;;;;;;;8.75;1.92;;;5.90;99.90;;;;;;4899306;29;20035;-76
2020/12/07 05:43:12;;;;;;;3.97;2.42;;;5.90;99.90;;;;;;4899265;29;20029;-68
2020/12/07 05:45:39;;;;;;;5.28;2.05;;;6.10;99.90;;;;;;4885591;29;20405;-68
2020/12/07 05:48:06;;;;;;;6.70;2.42;;;6.00;99.90;;;;;;4899331;29;20488;-68
2020/12/07 05:50:41;;;;;;;3.22;1.80;;;5.90;99.90;;;;;;4898672;29;20040;-68
2020/12/07 05:53:07;;;;;;;7.93;2.25;;;5.70;99.90;;;;;;4890693;29;20021;-68
2020/12/07 05:55:34;;;;;;;6.13;2.30;;;5.70;99.90;;;;;;4881965;29;20044;-68
2020/12/07 05:58:05;;;;;;;4.13;1.83;;;5.70;99.90;;;;;;4880473;29;20025;-69
2020/12/07 06:00:34;;;;;;;3.28;2.30;;;5.60;99.90;;;;;;4880664;29;20103;-71
2020/12/07 06:03:01;;;;;;;5.15;2.30;;;5.60;99.90;;;;;;4883651;29;20032;-71
2020/12/07 06:05:27;;;;;;;4.72;2.55;;;5.60;99.90;;;;;;4881745;29;20041;-71
2020/12/07 06:07:56;;;;;;;4.20;2.20;;;5.60;99.90;;;;;;4880696;29;20100;-71
2020/12/07 06:10:27;;;;;;;6.30;2.70;;;5.60;99.90;;;;;;4881954;29;20104;-71
2020/12/07 06:12:55;;;;;;;4.32;2.28;;;5.50;99.90;;;;;;4885908;29;20392;-71
2020/12/07 06:15:21;;;;;;;5.78;2.88;;;5.50;99.90;;;;;;4895142;29;20041;-71
2020/12/07 06:17:49;;;;;;;6.20;3.15;;;5.50;99.90;;;;;;4896083;29;20043;-69
2020/12/07 06:20:37;;;;;;;9.77;3.60;;;5.40;99.90;;;;;;4867948;29;20041;-74
2020/12/07 06:23:03;;;;;;;5.45;2.95;;;5.50;99.90;;;;;;4868148;29;20021;-74
2020/12/07 06:25:31;;;;;;;7.05;3.10;;;5.40;99.90;;;;;;4876226;29;20040;-74
2020/12/07 06:28:02;;;;;;;5.78;3.13;;;5.50;99.90;;;;;;4871802;29;20112;-74
2020/12/07 06:30:50;;;;;;;7.03;3.05;;;5.50;99.90;;;;;;4879304;29;20084;-73
2020/12/07 06:33:16;;;;;;;5.82;3.03;;;5.50;99.90;;;;;;4879556;29;20040;-71
2020/12/07 06:35:44;;;;;;;6.28;3.22;;;5.50;99.90;;;;;;4879236;29;20641;-72
2020/12/07 06:38:10;;;;;;;5.95;3.50;;;5.50;99.90;;;;;;4893868;29;20029;-72
2020/12/07 06:40:38;;;;;;;5.53;3.33;;;5.50;99.90;;;;;;4893468;29;20644;-72
2020/12/07 06:43:33;;;;;;;3.72;2.70;;;5.50;99.90;;;;;;4879621;29;20096;-72
2020/12/07 06:45:59;;;;;;;6.63;3.13;;;5.50;99.90;;;;;;4862600;29;20113;-73
2020/12/07 06:48:26;;;;;;;5.47;3.17;;;5.50;99.90;;;;;;4879865;29;20406;-72
2020/12/07 06:50:55;;;;;;;5.53;3.78;;;5.50;99.90;;;;;;4879081;29;20124;-73
2020/12/07 06:55:57;;;;;;;6.03;3.15;;;5.40;99.90;;;;;;4879215;29;20492;-72
2020/12/07 06:58:38;;;;;;;4.78;2.70;;;5.40;99.90;;;;;;4879191;29;20109;-72
2020/12/07 07:01:22;;;;;;;4.57;2.95;;;5.30;99.90;;;;;;4878964;29;20028;-70
2020/12/07 07:03:52;;;;;;;7.57;3.53;;;5.40;99.90;;;;;;4879276;29;20033;-73
2020/12/07 07:06:20;;;;;;;7.13;3.17;;;5.40;99.90;;;;;;4879119;29;20029;-73
2020/12/07 07:08:47;;;;;;;5.25;3.03;;;5.40;99.90;;;;;;4879183;29;20036;-78
2020/12/07 07:11:12;;;;;;;5.80;2.90;;;5.40;99.90;;;;;;4865465;29;20038;-73
2020/12/07 07:13:38;;;;;;;9.02;2.80;;;5.30;99.90;;;;;;4860432;29;20166;-73
2020/12/07 07:16:06;;;;;;;6.55;3.20;;;5.30;99.90;;;;;;4872501;29;20037;-75
2020/12/07 07:18:32;;;;;;;5.35;2.72;;;5.50;99.90;;;;;;4873961;29;20044;-77
2020/12/07 07:21:04;;;;;;;7.80;3.30;;;5.70;99.90;;;;;;4869672;29;20052;-73
2020/12/07 07:23:30;;;;;;;6.18;2.42;;;5.60;99.90;;;;;;4876533;29;20080;-73
2020/12/07 07:26:36;;;;;;;4.78;2.90;;;5.50;99.90;;;;;;4874737;29;20703;-71
2020/12/07 07:29:05;;;;;;;5.78;2.88;;;5.40;99.90;;;;;;4860746;29;20030;-72
2020/12/07 07:31:31;;;;;;;5.10;2.92;;;5.40;99.90;;;;;;4860486;29;20030;-72
2020/12/07 07:33:57;;;;;;;5.47;2.60;;;5.40;99.90;;;;;;4859907;29;20077;-76
2020/12/07 07:36:25;;;;;;;4.82;2.90;;;5.30;99.90;;;;;;4863843;29;20045;-68
2020/12/07 07:38:54;;;;;;;4.60;2.80;;;5.30;99.90;;;;;;4860492;29;20033;-82
2020/12/07 07:41:24;;;;;;;4.03;2.63;;;5.30;99.90;;;;;;4862298;29;20037;-78
2020/12/07 07:43:51;;;;;;;6.40;2.67;;;5.30;99.90;;;;;;4876400;29;20032;-75
2020/12/07 07:46:19;;;;;;;3.95;2.67;;;5.30;99.90;;;;;;4875359;29;20041;-75
2020/12/07 07:49:06;;;;;;;3.42;2.58;;;5.30;99.90;;;;;;4875482;29;20034;-76
2020/12/07 08:11:40;;;;;;;4.05;2.58;;;5.20;99.90;;;;;;4884205;29;20036;-76
2020/12/07 08:16:27;;;;;;;3.10;2.20;;;5.00;99.90;;;;;;4865739;29;20039;-76
2020/12/07 08:18:59;;;;;;;5.00;2.50;;;5.00;99.90;;;;;;4864103;29;20136;-75
2020/12/07 08:21:26;;;;;;;4.18;2.97;;;5.00;99.90;;;;;;4867302;29;20102;-76
2020/12/07 08:23:57;;;;;;;5.57;2.92;;;5.00;99.90;;;;;;4873074;29;20033;-76
2020/12/07 08:26:24;;;;;;;5.28;2.90;;;5.00;99.90;;;;;;4870901;29;20471;-76
2020/12/07 08:28:53;;;;;;;4.35;2.60;;;5.00;99.90;;;;;;4876480;29;20029;-75
2020/12/07 08:31:20;;;;;;;3.60;2.53;;;5.00;99.90;;;;;;4864945;29;20406;-75
2020/12/07 08:34:10;;;;;;;8.43;4.00;;;4.90;99.90;;;;;;4870482;29;20127;-72
2020/12/07 08:36:36;;;;;;;;;;;4.90;99.90;;;;;;4867502;29;20404;-70
2020/12/07 08:39:04;;;;;;;5.55;2.33;;;5.30;99.90;;;;;;4878192;29;19908;-70
2020/12/07 08:41:32;;;;;;;5.07;2.78;;;5.70;99.90;;;;;;4864742;29;20074;-70
2020/12/07 08:44:02;;;;;;;4.53;2.40;;;6.00;99.90;;;;;;4859447;29;20030;-71
2020/12/07 08:46:29;;;;;;;4.45;2.38;;;5.70;99.90;;;;;;4864128;29;20032;-70
2020/12/07 08:48:56;;;;;;;2.85;2.10;;;5.50;99.90;;;;;;4877648;29;20549;-70
2020/12/07 08:51:27;;;;;;;3.88;2.38;;;5.40;99.90;;;;;;4864447;29;20104;-70
2020/12/07 08:53:53;;;;;;;4.63;3.08;;;5.30;99.90;;;;;;4877774;29;20040;-70
2020/12/07 08:56:20;;;;;;;5.03;2.97;;;5.20;99.90;;;;;;4875269;29;20033;-70
2020/12/07 08:58:46;;;;;;;4.93;2.60;;;5.10;99.90;;;;;;4865788;29;20381;-70
2020/12/07 09:01:12;;;;;;;4.78;2.83;;;5.10;99.90;;;;;;4864498;29;20474;-70
2020/12/07 09:03:41;;;;;;;4.13;2.67;;;5.10;99.90;;;;;;4877557;29;20507;-70
2020/12/07 09:06:08;;;;;;;5.57;2.75;;;5.10;99.90;;;;;;4877727;29;20429;-70
2020/12/07 09:08:34;;;;;;;4.05;2.20;;;5.10;99.90;;;;;;4877418;29;20029;-70
2020/12/07 09:11:03;;;;;;;3.92;2.60;;;5.00;99.90;;;;;;4877298;29;20037;-70
2020/12/07 09:13:29;;;;;;;4.82;3.10;;;5.10;99.90;;;;;;4877487;29;20033;-70
2020/12/07 09:15:55;;;;;;;4.35;2.30;;;5.10;99.90;;;;;;4877072;29;20021;-70
2020/12/07 09:18:21;;;;;;;4.43;2.58;;;5.10;99.90;;;;;;4877247;29;20058;-70
2020/12/07 09:20:47;;;;;;;5.82;2.80;;;5.00;99.90;;;;;;4863961;29;20141;-70
2020/12/07 09:23:13;;;;;;;4.93;2.83;;;5.00;99.90;;;;;;4876062;29;20066;-70
2020/12/07 09:25:39;;;;;;;4.40;2.97;;;5.00;99.90;;;;;;4877311;29;20080;-70
2020/12/07 09:28:05;;;;;;;5.78;3.22;;;5.00;99.90;;;;;;4877816;29;20025;-70
2020/12/07 09:30:31;;;;;;;4.05;2.55;;;5.00;99.90;;;;;;4864395;29;20033;-70
2020/12/07 09:32:57;;;;;;;5.18;2.75;;;5.00;99.90;;;;;;4876966;29;20037;-70
2020/12/07 09:35:23;;;;;;;4.03;2.80;;;5.00;99.90;;;;;;4879467;29;20096;-70
2020/12/07 09:37:48;;;;;;;3.72;2.70;;;5.00;99.90;;;;;;4880581;29;20029;-70
2020/12/07 09:40:14;;;;;;;4.50;2.67;;;5.00;99.90;;;;;;4871581;29;20548;-70
2020/12/07 09:42:40;;;;;;;5.15;3.28;;;4.90;99.90;;;;;;4875082;29;20389;-70
2020/12/07 09:45:10;;;;;;;5.38;2.90;;;4.90;99.90;;;;;;4880522;29;20044;-70
2020/12/07 09:47:36;;;;;;;4.80;2.93;;;5.00;99.90;;;;;;4880613;29;20036;-70
2020/12/07 09:50:07;;;;;;;7.18;3.33;;;5.00;99.90;;;;;;4880445;29;20064;-70
2020/12/07 09:52:33;;;;;;;4.70;3.75;;;5.00;99.90;;;;;;4880205;29;20025;-70
2020/12/07 09:54:59;;;;;;;4.00;3.03;;;4.90;99.90;;;;;;4880202;29;20119;-70
2020/12/07 09:57:25;;;;;;;6.35;3.70;;;4.90;99.90;;;;;;4880222;29;20025;-70
2020/12/07 09:59:50;;;;;;;5.80;3.30;;;4.90;99.90;;;;;;4880346;29;20056;-70
2020/12/07 10:02:17;;;;;;;4.75;3.30;;;4.90;99.90;;;;;;4868188;29;20033;-70
2020/12/07 10:04:43;;;;;;;6.22;3.25;;;4.90;99.90;;;;;;4879391;29;20029;-70
2020/12/07 10:07:10;;;;;;;5.28;3.33;;;4.90;99.90;;;;;;4880322;29;20025;-72
2020/12/07 10:09:36;;;;;;;4.20;2.88;;;4.90;99.90;;;;;;4873422;29;20025;-73
2020/12/07 10:12:01;;;;;;;4.80;2.88;;;5.30;99.90;;;;;;4880320;29;20033;-72
2020/12/07 10:14:27;;;;;;;4.93;3.65;;;5.60;99.90;;;;;;4866885;29;20092;-70
2020/12/07 10:16:53;;;;;;;6.72;3.70;;;5.40;99.90;;;;;;4879562;29;20021;-72
2020/12/07 10:19:19;;;;;;;4.75;3.20;;;5.20;99.90;;;;;;4879368;29;20080;-72
2020/12/07 10:21:45;;;;;;;7.03;3.40;;;5.10;99.90;;;;;;4879451;29;20025;-74
2020/12/07 10:24:10;;;;;;;4.97;3.65;;;5.00;99.90;;;;;;4879665;29;20025;-81
2020/12/07 10:26:36;;;;;;;6.78;4.00;;;5.20;99.90;;;;;;4877622;29;20045;-83
2020/12/07 10:29:02;;;;;;;5.32;3.80;;;5.10;99.90;;;;;;4879276;29;20061;-83
2020/12/07 10:31:28;;;;;;;5.80;3.92;;;5.00;99.90;;;;;;4879790;29;20029;-83
2020/12/07 10:33:54;;;;;;;6.22;4.20;;;4.90;99.90;;;;;;4877321;29;20490;-77
2020/12/07 10:36:21;;;;;;;5.80;3.80;;;4.80;99.90;;;;;;4892931;29;20025;-74
2020/12/07 10:38:47;;;;;;;6.65;4.25;;;4.70;99.90;;;;;;4875713;29;20045;-73
2020/12/07 10:41:14;;;;;;;7.43;4.43;;;4.70;99.90;;;;;;4874054;29;20101;-74
2020/12/07 10:43:44;;;;;;;14.38;4.70;;;4.70;99.90;;;;;;4879578;29;20422;-72
2020/12/07 10:46:13;;;;;;;9.30;4.55;;;4.70;99.90;;;;;;4892929;29;20041;-74
2020/12/07 10:48:40;;;;;;;7.50;4.80;;;4.70;99.90;;;;;;4877838;29;20025;-74
2020/12/07 10:51:11;;;;;;;9.23;4.10;;;4.70;99.90;;;;;;4878139;29;20037;-74
2020/12/07 10:53:36;;;;;;;8.43;4.50;;;4.70;99.90;;;;;;4872719;29;20065;-73
2020/12/07 10:56:02;;;;;;;8.05;4.78;;;4.70;99.90;;;;;;4869378;29;20133;-73
2020/12/07 10:58:28;;;;;;;8.43;4.82;;;4.80;99.90;;;;;;4877923;29;20047;-73
2020/12/07 11:00:53;;;;;;;6.68;4.25;;;4.80;99.90;;;;;;4878703;29;20025;-73
2020/12/07 11:03:19;;;;;;;7.47;4.25;;;4.70;99.90;;;;;;4878892;29;20040;-73
2020/12/07 11:05:45;;;;;;;7.45;3.95;;;4.70;99.90;;;;;;4893307;29;20033;-73
2020/12/07 11:10:43;;;;;;;5.60;4.10;;;4.70;99.90;;;;;;4879063;29;20090;-72
2020/12/07 11:13:25;;;;;;;7.65;3.85;;;4.70;99.90;;;;;;4878839;29;20024;-72
2020/12/07 11:15:51;;;;;;;7.45;3.92;;;4.70;99.90;;;;;;4878413;29;20032;-73
2020/12/07 11:18:16;;;;;;;8.57;4.35;;;4.70;99.90;;;;;;4879031;29;20025;-73
2020/12/07 11:20:42;;;;;;;8.90;4.30;;;4.70;99.90;;;;;;4878663;29;20044;-73
2020/12/07 11:23:08;;;;;;;8.30;4.50;;;4.70;99.90;;;;;;4878832;29;20037;-73
2020/12/07 11:25:34;;;;;;;7.70;3.92;;;4.80;99.90;;;;;;4878692;29;20054;-73
2020/12/07 11:28:00;;;;;;;5.30;4.00;;;4.80;99.90;;;;;;4878682;29;20033;-72
2020/12/07 11:30:26;;;;;;;4.65;3.33;;;4.70;99.90;;;;;;4878693;29;20040;-72
2020/12/07 11:32:51;;;;;;;5.57;3.85;;;4.70;99.90;;;;;;4878577;29;20033;-73
2020/12/07 11:35:17;;;;;;;7.32;4.00;;;4.70;99.90;;;;;;4878405;29;20029;-72
2020/12/07 11:37:43;;;;;;;5.68;3.70;;;4.70;99.90;;;;;;4872052;29;20033;-73
2020/12/07 11:45:00;;;;;;;7.00;3.53;;;4.70;99.90;;;;;;4878175;29;20037;-74
2020/12/07 11:47:26;;;;;;;4.05;3.20;;;4.70;99.90;;;;;;4878595;29;20388;-74
2020/12/07 11:49:51;;;;;;;4.47;3.17;;;4.70;99.90;;;;;;4878281;29;20116;-74
2020/12/07 11:52:17;;;;;;;5.47;2.97;;;4.70;99.90;;;;;;4877123;29;20029;-75
2020/12/07 11:54:43;;;;;;;3.40;2.50;;;4.80;99.90;;;;;;4877344;29;20104;-75
2020/12/07 11:57:09;;;;;;;4.60;3.55;;;4.80;99.90;;;;;;4865978;29;20631;-74
2020/12/07 11:59:35;;;;;;;5.60;3.30;;;4.80;99.90;;;;;;4876164;29;20068;-74
2020/12/07 12:02:01;;;;;;;4.40;3.28;;;4.70;99.90;;;;;;4877797;29;20025;-74
2020/12/07 12:04:26;;;;;;;6.05;3.08;;;4.70;99.90;;;;;;4878122;29;20031;-74
2020/12/07 12:06:52;;;;;;;3.88;2.92;;;4.70;99.90;;;;;;4877598;29;20029;-73
2020/12/07 12:09:18;;;;;;;7.65;3.42;;;4.70;99.90;;;;;;4877872;29;20036;-74
2020/12/07 12:11:44;;;;;;;4.18;2.88;;;4.70;99.90;;;;;;4878278;29;20381;-74
2020/12/07 12:14:11;;;;;;;4.38;2.60;;;4.70;99.90;;;;;;4877911;29;20104;-74
2020/12/07 12:16:39;;;;;;;4.00;2.40;;;4.70;99.90;;;;;;4878281;29;20040;-73
2020/12/07 12:19:07;;;;;;;4.15;2.53;;;4.70;99.90;;;;;;4877553;29;20052;-73
2020/12/07 12:21:33;;;;;;;4.60;3.10;;;4.70;99.90;;;;;;4878178;29;20017;-73
2020/12/07 12:24:02;;;;;;;5.35;2.58;;;4.60;99.90;;;;;;4864833;29;20367;-73
2020/12/07 12:26:40;;;;;;;4.18;2.70;;;4.60;99.90;;;;;;4865045;29;20401;-73
2020/12/07 12:29:06;;;;;;;3.72;2.67;;;4.60;99.90;;;;;;4878203;29;20056;-73
2020/12/07 12:31:33;;;;;;;5.07;2.85;;;4.60;99.90;;;;;;4877674;29;20025;-73
2020/12/07 12:33:59;;;;;;;4.72;3.15;;;4.60;99.90;;;;;;4877586;29;20039;-75
2020/12/07 12:36:26;;;;;;;3.97;2.85;;;4.60;99.90;;;;;;4877880;29;20045;-74
2020/12/07 12:38:53;;;;;;;3.47;2.60;;;4.50;99.90;;;;;;4877566;29;20028;-74
2020/12/07 12:41:19;;;;;;;3.95;2.67;;;4.60;99.90;;;;;;4872453;29;20030;-74
2020/12/07 12:43:45;;;;;;;4.78;3.00;;;4.60;99.90;;;;;;4865577;29;20118;-74
2020/12/07 12:46:12;;;;;;;4.13;3.00;;;4.50;99.90;;;;;;4873616;29;20047;-72
2020/12/07 12:48:38;;;;;;;3.95;3.20;;;4.50;99.90;;;;;;4877825;29;20426;-72
2020/12/07 12:51:07;;;;;;;5.88;3.50;;;4.50;99.90;;;;;;4877769;29;20512;-73
2020/12/07 12:53:33;;;;;;;4.38;2.92;;;4.50;99.90;;;;;;4877338;29;20488;-75
2020/12/07 12:55:59;;;;;;;4.45;3.40;;;4.50;99.90;;;;;;4877375;29;20396;-72
2020/12/07 12:58:25;;;;;;;5.63;3.10;;;5.00;99.90;;;;;;4877361;29;20025;-73
2020/12/07 13:00:51;;;;;;;5.97;2.88;;;4.90;99.90;;;;;;4877415;29;20045;-73
2020/12/07 13:03:17;;;;;;;8.38;3.25;;;4.80;99.90;;;;;;4877431;29;20437;-72
2020/12/07 13:05:43;;;;;;;4.40;2.90;;;4.80;99.90;;;;;;4877373;29;20124;-72
2020/12/07 13:08:09;;;;;;;4.10;2.95;;;4.80;99.90;;;;;;4877716;29;20385;-72
2020/12/07 13:10:35;;;;;;;4.35;3.10;;;4.80;99.90;;;;;;4881137;29;20041;-72
2020/12/07 13:13:01;;;;;;;5.15;3.13;;;5.00;99.90;;;;;;4867981;29;20021;-72
2020/12/07 13:15:28;;;;;;;4.88;3.10;;;5.10;99.90;;;;;;4881091;29;20045;-72
2020/12/07 13:18:00;;;;;;;3.60;2.88;;;5.10;99.90;;;;;;4880661;29;20040;-72
2020/12/07 13:20:33;;;;;;;4.25;3.28;;;5.00;99.90;;;;;;4880760;29;20090;-72
2020/12/07 13:23:10;;;;;;;6.72;2.78;;;5.10;99.90;;;;;;4881085;29;20044;-72
2020/12/07 13:25:45;;;;;;;5.32;2.80;;;5.10;99.90;;;;;;4880907;29;20188;-72
2020/12/07 13:28:15;;;;;;;3.80;2.88;;;5.50;99.90;;;;;;4877997;29;20025;-72
2020/12/07 13:30:44;;;;;;;5.88;2.97;;;5.40;99.90;;;;;;4880757;29;20753;-72
2020/12/07 13:33:11;;;;;;;4.10;3.20;;;5.20;99.90;;;;;;4880822;29;20032;-72
2020/12/07 13:35:41;;;;;;;5.07;3.30;;;5.10;99.90;;;;;;4867533;29;20169;-72
2020/12/07 13:38:08;;;;;;;6.93;3.30;;;5.10;99.90;;;;;;4880091;29;20029;-72
2020/12/07 13:40:33;;;;;;;5.72;3.58;;;4.90;99.90;;;;;;4880530;29;20028;-72
2020/12/07 13:43:00;;;;;;;5.38;3.60;;;4.80;99.90;;;;;;4879497;29;20107;-74
2020/12/07 13:45:27;;;;;;;6.05;3.78;;;4.70;99.90;;;;;;4880319;29;20037;-73
2020/12/07 13:47:53;;;;;;;6.03;3.55;;;4.70;99.90;;;;;;4879140;29;20033;-73
2020/12/07 13:50:19;;;;;;;4.68;3.50;;;4.60;99.90;;;;;;4874700;29;20104;-73
2020/12/07 13:52:44;;;;;;;6.63;3.50;;;4.60;99.90;;;;;;4871855;29;20033;-73
2020/12/07 13:55:10;;;;;;;7.32;3.90;;;4.60;99.90;;;;;;4865804;29;20033;-73
2020/12/07 13:57:36;;;;;;;7.20;3.97;;;4.60;99.90;;;;;;4880262;29;20056;-73
2020/12/07 14:00:04;;;;;;;5.50;3.78;;;4.60;99.90;;;;;;4880268;29;20059;-73
2020/12/07 14:02:30;;;;;;;5.10;3.83;;;4.50;99.90;;;;;;4880406;29;20108;-73
2020/12/07 14:05:01;;;;;;;5.53;3.85;;;4.50;99.90;;;;;;4879652;29;20129;-75
2020/12/07 14:07:27;;;;;;;8.88;4.45;;;4.60;99.90;;;;;;4880036;29;20028;-73
2020/12/07 14:09:56;;;;;;;7.50;4.05;;;4.70;99.90;;;;;;4879853;29;20028;-72
2020/12/07 14:12:23;;;;;;;5.90;4.28;;;4.70;99.90;;;;;;4880210;29;20056;-72
2020/12/07 14:14:52;;;;;;;6.82;4.72;;;4.60;99.90;;;;;;4877553;29;20081;-73
2020/12/07 14:17:21;;;;;;;6.95;4.47;;;4.60;99.90;;;;;;4879794;29;20036;-72
2020/12/07 14:40:50;;;;;;;10.25;5.13;;;4.30;99.90;;;;;;4879608;29;20436;-80
2020/12/07 14:43:16;;;;;;;8.32;4.47;;;4.40;99.90;;;;;;4879138;29;20037;-79
2020/12/07 14:45:57;;;;;;;8.00;4.18;;;4.30;99.90;;;;;;4868972;29;20045;-83
2020/12/07 14:48:23;;;;;;;7.70;3.97;;;4.40;99.90;;;;;;4864491;29;20030;-79
2020/12/07 14:50:58;;;;;;;9.63;4.57;;;4.40;99.90;;;;;;4870482;29;20493;-78
2020/12/07 14:53:26;;;;;;;9.23;4.45;;;4.30;99.90;;;;;;4878622;29;20076;-79
2020/12/07 14:56:05;;;;;;;6.65;4.30;;;4.40;99.90;;;;;;4876218;29;20037;-80
2020/12/07 15:04:08;;;;;;;6.28;4.35;;;4.30;99.90;;;;;;4879078;29;20148;-80
2020/12/07 15:06:41;;;;;;;7.50;4.30;;;4.30;99.90;;;;;;4873914;29;20097;-79
2020/12/07 15:14:40;;;;;;;10.10;4.40;;;4.50;99.90;;;;;;4858045;29;20512;-73
2020/12/07 15:17:05;;;;;;;8.50;4.20;;;4.50;99.90;;;;;;4874235;29;20044;-73
2020/12/07 15:22:35;;;;;;;7.93;4.78;;;4.40;99.90;;;;;;4863432;29;20037;-72
2020/12/07 15:25:01;;;;;;;10.80;4.50;;;4.40;99.90;;;;;;4860140;29;20038;-73
2020/12/07 15:27:27;;;;;;;8.10;4.18;;;4.40;99.90;;;;;;4875382;29;20049;-72
2020/12/07 15:29:53;;;;;;;9.38;4.80;;;4.40;99.90;;;;;;4874999;29;20025;-73
2020/12/07 15:32:18;;;;;;;5.68;3.80;;;4.50;99.90;;;;;;4877784;29;20033;-73
2020/12/07 15:34:44;;;;;;;5.93;4.35;;;4.40;99.90;;;;;;4878858;29;20017;-73
2020/12/07 15:37:10;;;;;;;6.43;4.10;;;4.40;99.90;;;;;;4878371;29;20061;-73
2020/12/07 15:39:36;;;;;;;7.90;4.50;;;4.40;99.90;;;;;;4878631;29;20032;-73
2020/12/07 15:42:01;;;;;;;8.70;4.15;;;4.40;99.90;;;;;;4878649;29;20116;-72
2020/12/07 15:44:27;;;;;;;6.05;4.18;;;4.50;99.90;;;;;;4878527;29;20374;-73
2020/12/07 15:46:53;;;;;;;7.15;3.92;;;4.40;99.90;;;;;;4878317;29;20040;-74
2020/12/07 15:49:19;;;;;;;6.22;3.55;;;4.40;99.90;;;;;;4877076;29;20057;-74
2020/12/07 15:51:44;;;;;;;5.25;3.50;;;4.60;99.90;;;;;;4878244;29;20036;-74
2020/12/07 15:54:10;;;;;;;8.00;4.07;;;4.50;99.90;;;;;;4878438;29;20028;-75
2020/12/07 15:56:36;;;;;;;7.35;3.35;;;4.50;99.90;;;;;;4878408;29;20033;-74
2020/12/07 15:59:02;;;;;;;7.20;3.38;;;4.40;99.90;;;;;;4877933;29;20033;-74
2020/12/07 16:01:27;;;;;;;8.10;3.40;;;4.40;99.90;;;;;;4878142;29;20088;-75
2020/12/07 16:03:54;;;;;;;6.22;3.45;;;4.40;99.90;;;;;;4877019;29;20338;-79
2020/12/07 16:06:21;;;;;;;5.68;3.20;;;4.30;99.90;;;;;;4877727;29;20041;-77
2020/12/07 16:08:47;;;;;;;6.45;3.42;;;4.30;99.90;;;;;;4877965;29;20021;-80
2020/12/07 16:11:20;;;;;;;4.80;3.13;;;4.30;99.90;;;;;;4878026;29;20505;-79
2020/12/07 16:13:49;;;;;;;7.57;2.88;;;4.20;99.90;;;;;;4877941;29;20139;-80
2020/12/07 16:16:17;;;;;;;5.47;3.50;;;4.20;99.90;;;;;;4877911;29;20021;-77
2020/12/07 16:18:43;;;;;;;5.15;3.28;;;4.20;99.90;;;;;;4878005;29;20085;-76
2020/12/07 16:21:09;;;;;;;5.20;2.80;;;4.10;99.90;;;;;;4871493;29;20069;-77
2020/12/07 16:23:38;;;;;;;5.20;2.88;;;4.10;99.90;;;;;;4871408;29;20397;-77
2020/12/07 16:26:04;;;;;;;4.53;3.38;;;4.20;99.90;;;;;;4876798;29;20041;-76
2020/12/07 16:28:30;;;;;;;3.92;3.08;;;4.10;99.90;;;;;;4864783;29;20101;-73
2020/12/07 16:30:56;;;;;;;4.38;2.83;;;4.20;99.90;;;;;;4878114;29;20029;-75
2020/12/07 16:33:22;;;;;;;3.42;2.78;;;4.20;99.90;;;;;;4864742;29;20025;-74
2020/12/07 16:35:48;;;;;;;3.78;2.70;;;4.20;99.90;;;;;;4878455;29;20028;-73
2020/12/07 16:38:14;;;;;;;3.90;2.67;;;4.10;99.90;;;;;;4876845;29;20066;-73
2020/12/07 16:40:40;;;;;;;3.97;2.60;;;4.10;99.90;;;;;;4874502;29;20504;-74
2020/12/07 16:43:06;;;;;;;4.68;2.63;;;4.10;99.90;;;;;;4878445;29;20021;-76
2020/12/07 16:45:32;;;;;;;4.20;2.67;;;4.10;99.90;;;;;;4880647;29;20033;-77
2020/12/07 16:48:25;;;;;;;6.72;2.95;;;4.10;99.90;;;;;;4881046;29;20029;-77
2020/12/07 16:50:51;;;;;;;5.05;2.65;;;4.10;99.90;;;;;;4880897;29;20556;-77
2020/12/07 16:53:17;;;;;;;4.22;2.90;;;4.10;99.90;;;;;;4880749;29;20498;-77
2020/12/07 16:55:42;;;;;;;3.47;2.58;;;4.10;99.90;;;;;;4880621;29;20052;-73
2020/12/07 16:58:08;;;;;;;3.58;2.53;;;4.10;99.90;;;;;;4881291;29;20044;-73
2020/12/07 17:00:34;;;;;;;4.38;2.80;;;4.20;99.90;;;;;;4881476;29;20071;-75
2020/12/07 17:03:00;;;;;;;3.75;2.72;;;4.20;99.90;;;;;;4854519;29;20061;-73
2020/12/07 17:05:25;;;;;;;4.30;2.70;;;4.20;99.90;;;;;;4878764;29;20384;-80
2020/12/07 17:07:51;;;;;;;3.70;2.33;;;4.30;99.90;;;;;;4872851;29;20038;-80
2020/12/07 17:10:17;;;;;;;7.78;2.50;;;4.50;99.90;;;;;;4862452;29;20550;-79
2020/12/07 17:12:42;;;;;;;5.72;3.15;;;4.60;99.90;;;;;;4862625;29;20501;-79
2020/12/07 17:15:08;;;;;;;4.85;2.70;;;4.60;99.90;;;;;;4862705;29;20089;-79
2020/12/07 17:17:34;;;;;;;4.25;2.65;;;4.50;99.90;;;;;;4862353;29;20060;-79
2020/12/07 17:20:00;;;;;;;3.97;2.42;;;4.50;99.90;;;;;;4871291;29;20247;-79
2020/12/07 17:22:25;;;;;;;7.63;2.83;;;4.50;99.90;;;;;;4878437;29;20446;-76
2020/12/07 17:24:51;;;;;;;5.55;2.75;;;4.50;99.90;;;;;;4862456;29;20028;-78
2020/12/07 17:27:17;;;;;;;5.45;2.83;;;4.50;99.90;;;;;;4876064;29;20031;-79
2020/12/07 17:29:43;;;;;;;3.42;2.70;;;4.50;99.90;;;;;;4879778;29;20053;-80
2020/12/07 17:32:09;;;;;;;6.20;3.53;;;4.50;99.90;;;;;;4872965;29;20050;-81
2020/12/07 17:34:35;;;;;;;4.15;2.65;;;5.50;99.90;;;;;;4869917;29;20048;-80
2020/12/07 17:37:01;;;;;;;4.35;2.33;;;6.00;99.90;;;;;;4874096;29;20112;-77
2020/12/07 17:39:26;;;;;;;4.25;2.83;;;5.70;99.90;;;;;;4882379;29;20060;-79
2020/12/07 17:41:52;;;;;;;3.40;2.40;;;5.40;99.90;;;;;;4880785;29;20036;-78
2020/12/07 17:44:21;;;;;;;8.80;2.60;;;5.20;99.90;;;;;;4876599;29;20058;-78
2020/12/07 17:46:47;;;;;;;6.45;2.78;;;5.10;99.90;;;;;;4874561;29;20124;-78
2020/12/07 17:49:13;;;;;;;3.78;2.47;;;5.00;99.90;;;;;;4880291;29;20025;-78
2020/12/07 17:51:39;;;;;;;4.95;3.05;;;4.90;99.90;;;;;;4874235;29;20035;-78
2020/12/07 17:54:05;;;;;;;4.63;2.78;;;4.90;99.90;;;;;;4862739;29;20113;-80
2020/12/07 17:56:31;;;;;;;5.13;2.33;;;4.80;99.90;;;;;;4862900;29;20065;-79
2020/12/07 17:58:58;;;;;;;3.25;2.45;;;4.80;99.90;;;;;;4870065;29;20485;-79
2020/12/07 18:01:24;;;;;;;3.10;2.40;;;4.70;99.90;;;;;;4880284;29;20393;-78
2020/12/07 18:03:50;;;;;;;5.40;2.90;;;4.70;99.90;;;;;;4869318;29;20438;-78
2020/12/07 18:06:20;;;;;;;6.95;2.83;;;4.70;99.90;;;;;;4861459;29;20506;-77
2020/12/07 18:08:46;;;;;;;4.70;2.67;;;4.70;99.90;;;;;;4861701;29;20378;-78
2020/12/07 18:11:13;;;;;;;4.35;2.75;;;4.60;99.90;;;;;;4873367;29;20542;-78
2020/12/07 18:13:39;;;;;;;4.18;3.00;;;4.60;99.90;;;;;;4879033;29;20513;-76
2020/12/07 18:16:05;;;;;;;5.30;2.58;;;4.60;99.90;;;;;;4868560;29;20105;-77
2020/12/07 18:18:30;;;;;;;4.57;2.60;;;4.60;99.90;;;;;;4861420;29;20065;-76
2020/12/07 18:20:56;;;;;;;7.07;3.60;;;4.60;99.90;;;;;;4864252;29;20112;-78
2020/12/07 18:23:22;;;;;;;4.80;3.15;;;4.60;99.90;;;;;;4880180;29;20579;-76
2020/12/07 18:25:47;;;;;;;4.95;3.33;;;4.60;99.90;;;;;;4878646;29;20069;-78
2020/12/07 18:28:13;;;;;;;5.68;3.28;;;4.60;99.90;;;;;;4871783;29;20439;-77
2020/12/07 18:30:39;;;;;;;5.25;3.38;;;4.60;99.90;;;;;;4861314;29;20086;-76
2020/12/07 18:33:05;;;;;;;4.95;3.28;;;4.50;99.90;;;;;;4861052;29;20117;-80
2020/12/07 18:35:31;;;;;;;5.18;3.30;;;4.50;99.90;;;;;;4868829;29;20036;-79
2020/12/07 18:37:57;;;;;;;5.10;3.25;;;4.50;99.90;;;;;;4861734;29;20034;-79
2020/12/07 18:40:23;;;;;;;4.75;2.92;;;4.50;99.90;;;;;;4870285;29;20110;-78
2020/12/07 18:42:53;;;;;;;4.57;3.17;;;4.50;99.90;;;;;;4873898;29;20040;-79
2020/12/07 18:45:19;;;;;;;4.13;2.55;;;4.50;99.90;;;;;;4865687;29;20065;-80
2020/12/07 18:47:45;;;;;;;3.97;2.60;;;4.50;99.90;;;;;;4879575;29;20029;-80
2020/12/07 18:50:11;;;;;;;3.80;2.90;;;4.60;99.90;;;;;;4879504;29;20025;-73
2020/12/07 18:52:36;;;;;;;4.68;3.00;;;4.90;99.90;;;;;;4864873;29;20061;-73
2020/12/07 18:55:02;;;;;;;5.10;3.00;;;4.90;99.90;;;;;;4870728;29;20112;-74
2020/12/07 18:57:33;;;;;;;5.40;3.20;;;4.80;99.90;;;;;;4875210;29;20031;-74
2020/12/07 19:00:00;;;;;;;4.90;3.33;;;4.70;99.90;;;;;;4879257;29;20021;-74
2020/12/07 19:02:28;;;;;;;3.67;3.13;;;4.70;99.90;;;;;;4879112;29;20025;-74
2020/12/07 19:04:54;;;;;;;6.72;3.60;;;4.60;99.90;;;;;;4879381;29;20029;-74
2020/12/07 19:07:20;;;;;;;4.72;3.20;;;4.60;99.90;;;;;;4878722;29;20029;-74
2020/12/07 19:09:46;;;;;;;4.80;3.40;;;4.50;99.90;;;;;;4879300;29;20116;-74
2020/12/07 19:12:12;;;;;;;5.47;3.65;;;4.50;99.90;;;;;;4868929;29;20694;-74
2020/12/07 19:14:37;;;;;;;5.22;3.13;;;4.50;99.90;;;;;;4864019;29;20029;-74
2020/12/07 19:17:03;;;;;;;6.10;3.45;;;4.40;99.90;;;;;;4864315;29;20100;-74
2020/12/07 19:19:29;;;;;;;6.15;3.45;;;4.40;99.90;;;;;;4875308;29;20104;-73
2020/12/07 19:21:56;;;;;;;6.03;3.55;;;4.40;99.90;;;;;;4874882;29;20482;-73
2020/12/07 19:24:22;;;;;;;6.10;3.55;;;4.40;99.90;;;;;;4860411;29;20026;-73